KLBL/LBL METAR and TAF weather

Enter ICAO airport designator
Station Type Date Time Source
KLBL METAR 2019/12/08 00:56 UTC NOAA

KLBL 080056Z AUTO 16011KT 10SM CLR 09/03 A2992 RMK AO2 SLP143 T00890028


Station Type Date Time Source
KLBL Decoded METAR 2019/12/08 00:56 UTC NOAA

Liberal, Liberal Municipal Airport, KS, United States (KLBL) 37-03N 100-58W
Dec 07, 2019 - 07:56 PM EST / 2019.12.08 0056 UTC
Wind: from the SSE (160 degrees) at 13 MPH (11 KT):0
Visibility: 10 mile(s):0
Sky conditions: clear
Temperature: 48.0 F (8.9 C)
Dew Point: 37.0 F (2.8 C)
Relative Humidity: 65%
Pressure (altimeter): 29.92 in. Hg (1013 hPa)
ob: KLBL 080056Z AUTO 16011KT 10SM CLR 09/03 A2992 RMK AO2 SLP143 T00890028
cycle: 1

Station Type Date Time Source
KLBL TAF 2019/12/07 18:21 UTC NOAA

TAF KLBL 071720Z 0718/0818 18017G25KT P6SM FEW250
FM080000 17013KT P6SM FEW250
FM081600 34006KT P6SM SCT200

Example: see airport list